createdAt,value
2018-12-23T00:00:12.823Z,10.23
2018-12-23T00:02:45.926Z,15.37
2018-12-23T00:05:19.094Z,19.90
2018-12-23T00:07:52.262Z,10.47
2018-12-23T00:10:25.920Z,11.40
2018-12-23T00:12:59.113Z,10.23
2018-12-23T00:15:31.847Z,14.00
2018-12-23T00:18:05.168Z,10.80
2018-12-23T00:20:39.636Z,11.60
2018-12-23T00:23:12.647Z,13.63
2018-12-23T00:25:48.407Z,10.37
2018-12-23T00:28:21.134Z,11.60
2018-12-23T00:30:55.992Z,9.27
2018-12-23T00:33:30.278Z,10.03
2018-12-23T00:36:03.073Z,14.60
2018-12-23T00:38:36.811Z,11.73
2018-12-23T00:41:09.631Z,9.80
2018-12-23T00:43:44.716Z,17.27
2018-12-23T00:46:17.703Z,13.97
2018-12-23T00:48:51.377Z,27.67
2018-12-23T00:51:24.477Z,16.83
2018-12-23T00:53:57.421Z,16.65
2018-12-23T00:56:31.027Z,16.93
2018-12-23T00:59:04.274Z,14.50
2018-12-23T01:01:38.307Z,16.17
2018-12-23T01:04:10.799Z,12.47
2018-12-23T01:06:43.478Z,14.50
2018-12-23T01:09:15.951Z,14.47
2018-12-23T01:11:49.274Z,15.97
2018-12-23T01:14:22.041Z,14.17
2018-12-23T01:16:57.246Z,14.50
2018-12-23T01:19:30.264Z,21.90
2018-12-23T01:22:04.142Z,18.70
2018-12-23T01:24:37.362Z,18.47
2018-12-23T01:27:10.155Z,16.07
2018-12-23T01:29:42.906Z,16.63
2018-12-23T01:32:15.268Z,14.50
2018-12-23T01:34:49.307Z,28.27
2018-12-23T01:37:23.228Z,35.47
2018-12-23T01:39:56.077Z,37.07
2018-12-23T01:42:28.770Z,29.83
2018-12-23T01:45:03.605Z,37.77
2018-12-23T01:47:36.683Z,46.87
2018-12-23T01:50:09.922Z,48.00
2018-12-23T01:52:42.841Z,38.13
2018-12-23T01:55:15.723Z,31.87
2018-12-23T01:57:48.691Z,35.53
2018-12-23T02:00:22.382Z,37.80
2018-12-23T02:02:55.921Z,38.10
2018-12-23T02:05:28.834Z,37.53
2018-12-23T02:08:02.335Z,36.00
2018-12-23T02:10:35.268Z,36.65
2018-12-23T02:13:08.441Z,33.30
2018-12-23T02:15:41.262Z,29.57
2018-12-23T02:18:14.266Z,29.97
2018-12-23T02:20:47.215Z,27.73
2018-12-23T02:23:20.086Z,27.73
2018-12-23T02:25:53.283Z,24.50
2018-12-23T02:28:26.484Z,28.23
2018-12-23T02:30:59.567Z,29.10
2018-12-23T02:33:33.326Z,31.97
2018-12-23T02:36:05.995Z,29.33
2018-12-23T02:38:40.171Z,30.63
2018-12-23T02:41:12.957Z,30.27
2018-12-23T02:43:45.752Z,28.38
2018-12-23T02:46:19.686Z,23.97
2018-12-23T02:48:52.132Z,21.63
2018-12-23T02:51:24.882Z,22.87
2018-12-23T02:53:57.843Z,25.70
2018-12-23T02:56:30.679Z,30.17
2018-12-23T02:59:04.628Z,27.70
2018-12-23T03:01:37.330Z,26.53
2018-12-23T03:04:10.939Z,25.13
2018-12-23T03:06:48.364Z,30.93
2018-12-23T03:09:24.461Z,27.23
2018-12-23T03:11:57.967Z,26.77
2018-12-23T03:14:31.755Z,24.95
2018-12-23T03:17:04.172Z,26.17
2018-12-23T03:19:37.831Z,25.50
2018-12-23T03:22:10.652Z,25.40
2018-12-23T03:24:52.640Z,22.27
2018-12-23T03:27:30.836Z,13.77
2018-12-23T03:30:04.604Z,14.40
2018-12-23T03:32:37.332Z,14.20
2018-12-23T03:35:10.304Z,17.77
2018-12-23T03:37:43.232Z,14.23
2018-12-23T03:40:16.208Z,15.47
2018-12-23T03:42:49.343Z,18.20
2018-12-23T03:45:21.862Z,14.40
2018-12-23T03:47:56.938Z,26.52
2018-12-23T03:50:30.487Z,26.20
2018-12-23T03:53:03.058Z,25.83
2018-12-23T03:55:36.095Z,23.70
2018-12-23T03:58:09.027Z,23.67
2018-12-23T04:00:41.935Z,21.73
2018-12-23T04:03:15.655Z,15.80
2018-12-23T04:05:48.247Z,16.97
2018-12-23T04:08:21.760Z,16.97
2018-12-23T04:10:54.623Z,17.83
2018-12-23T04:13:27.500Z,16.10
2018-12-23T04:16:00.467Z,17.50
2018-12-23T04:18:33.036Z,19.07
2018-12-23T04:21:06.866Z,18.47
2018-12-23T04:23:40.189Z,18.07
2018-12-23T04:26:14.981Z,17.10
2018-12-23T04:28:47.918Z,18.17
2018-12-23T04:31:20.765Z,18.37
2018-12-23T04:33:54.437Z,17.60
2018-12-23T04:36:34.021Z,16.00
2018-12-23T04:39:03.135Z,16.80
2018-12-23T04:41:35.901Z,18.60
2018-12-23T04:44:08.830Z,19.40
2018-12-23T04:46:41.747Z,20.53
2018-12-23T04:49:14.642Z,21.33
2018-12-23T04:51:47.764Z,23.07
2018-12-23T04:54:20.978Z,22.67
2018-12-23T04:56:58.729Z,29.57
2018-12-23T04:59:31.534Z,26.17
2018-12-23T05:02:04.595Z,23.20
2018-12-23T05:04:37.539Z,22.50
2018-12-23T05:07:10.324Z,21.33
2018-12-23T05:09:42.939Z,21.07
2018-12-23T05:12:15.734Z,18.93
2018-12-23T05:14:48.587Z,18.60
2018-12-23T05:17:21.546Z,17.03
2018-12-23T05:19:54.283Z,17.07
2018-12-23T05:22:27.842Z,22.33
2018-12-23T05:25:00.508Z,20.90
2018-12-23T05:27:32.978Z,18.80
2018-12-23T05:30:06.310Z,19.53
2018-12-23T05:41:15.911Z,17.53
2018-12-23T05:43:59.169Z,19.70
2018-12-23T05:46:42.619Z,17.43
2018-12-23T05:49:26.456Z,17.80
2018-12-23T05:52:09.879Z,18.43
2018-12-23T05:54:54.047Z,17.90
2018-12-23T05:57:39.407Z,19.67
2018-12-23T06:00:23.864Z,18.20
2018-12-23T06:05:49.532Z,16.03
2018-12-23T06:08:34.102Z,15.53
2018-12-23T06:11:16.992Z,15.33
2018-12-23T06:14:00.209Z,15.93
2018-12-23T06:16:45.162Z,14.60
2018-12-23T06:19:28.688Z,16.53
2018-12-23T06:22:13.118Z,19.35
2018-12-23T06:24:56.396Z,17.40
2018-12-23T06:27:39.487Z,16.33
2018-12-23T06:30:22.192Z,16.90
2018-12-23T06:33:05.775Z,21.13
2018-12-23T06:35:48.740Z,17.43
2018-12-23T06:41:15.393Z,15.30
2018-12-23T06:43:58.672Z,16.37
2018-12-23T06:46:41.883Z,17.17
2018-12-23T06:52:07.647Z,17.33
2018-12-23T06:54:51.040Z,19.05
2018-12-23T06:57:34.624Z,14.33
2018-12-23T07:00:19.100Z,18.80
2018-12-23T07:03:01.977Z,18.10
2018-12-23T07:05:45.084Z,21.73
2018-12-23T07:08:27.803Z,23.07
2018-12-23T07:11:12.060Z,23.07
2018-12-23T07:13:56.612Z,18.90
2018-12-23T07:16:40.144Z,15.80
2018-12-23T07:19:23.998Z,12.83
2018-12-23T07:22:07.059Z,12.27
2018-12-23T07:24:50.283Z,12.23
2018-12-23T07:27:34.481Z,13.67
2018-12-23T07:30:18.231Z,11.67
2018-12-23T07:33:03.045Z,12.70
2018-12-23T07:35:46.111Z,13.63
2018-12-23T07:38:29.999Z,11.03
2018-12-23T07:41:13.707Z,12.07
2018-12-23T07:43:57.804Z,11.23
2018-12-23T07:46:42.550Z,10.57
2018-12-23T07:49:25.824Z,10.60
2018-12-23T07:52:09.079Z,10.27
2018-12-23T07:54:54.556Z,11.53
2018-12-23T07:57:38.402Z,10.80
2018-12-23T08:00:21.406Z,11.53
2018-12-23T08:03:03.971Z,10.53
2018-12-23T08:05:47.696Z,9.23
2018-12-23T08:08:31.347Z,9.77
2018-12-23T08:11:15.405Z,9.00
2018-12-23T08:13:59.519Z,8.47
2018-12-23T08:16:44.287Z,8.70
2018-12-23T08:19:27.947Z,9.50
2018-12-23T08:22:11.103Z,8.90
2018-12-23T08:24:57.147Z,4.27
2018-12-23T08:27:43.291Z,9.07
2018-12-23T08:30:27.506Z,9.97
2018-12-23T08:33:14.431Z,10.47
2018-12-23T08:35:58.994Z,10.97
2018-12-23T08:38:43.131Z,11.33
2018-12-23T08:41:27.236Z,13.37
2018-12-23T08:44:10.222Z,10.90
2018-12-23T08:46:54.113Z,11.27
2018-12-23T08:49:37.647Z,11.70
2018-12-23T08:52:20.387Z,11.13
2018-12-23T08:57:45.873Z,10.67
2018-12-23T09:00:29.856Z,11.37
2018-12-23T09:03:18.810Z,12.63
2018-12-23T09:05:59.228Z,13.67
2018-12-23T09:08:43.599Z,14.15
2018-12-23T09:11:28.335Z,14.43
2018-12-23T09:14:12.819Z,13.57
2018-12-23T09:16:56.101Z,13.97
2018-12-23T09:19:39.536Z,15.83
2018-12-23T09:22:23.108Z,15.53
2018-12-23T09:25:06.950Z,15.53
2018-12-23T09:27:50.763Z,17.47
2018-12-23T09:30:34.918Z,17.47
2018-12-23T09:33:18.322Z,17.30
2018-12-23T09:36:01.235Z,17.10
2018-12-23T09:38:44.232Z,18.30
2018-12-23T09:41:27.759Z,20.00
2018-12-23T09:44:11.194Z,22.20
2018-12-23T09:46:55.619Z,21.50
2018-12-23T09:52:22.456Z,24.23
2018-12-23T09:55:05.283Z,25.33
2018-12-23T09:57:48.302Z,25.13
2018-12-23T10:00:31.793Z,30.17
2018-12-23T10:03:16.863Z,70.92
2018-12-23T10:06:00.672Z,49.13
2018-12-23T10:08:44.915Z,42.87
2018-12-23T10:11:28.592Z,29.53
2018-12-23T10:16:55.987Z,23.20
2018-12-23T10:19:41.041Z,23.60
2018-12-23T10:22:24.062Z,29.23
2018-12-23T10:27:50.739Z,31.67
2018-12-23T10:33:20.720Z,24.67
2018-12-23T10:36:04.173Z,21.90
2018-12-23T10:38:48.620Z,21.20
2018-12-23T10:41:32.016Z,20.33
2018-12-23T10:44:17.384Z,17.87
2018-12-23T10:47:00.764Z,19.00
2018-12-23T10:49:44.103Z,21.10
2018-12-23T10:52:27.049Z,19.70
2018-12-23T10:55:10.100Z,20.23
2018-12-23T10:57:54.105Z,22.37
2018-12-23T11:00:37.724Z,22.13
2018-12-23T11:03:20.701Z,22.53
2018-12-23T11:06:04.881Z,23.67
2018-12-23T11:08:47.816Z,24.73
2018-12-23T11:11:31.892Z,25.13
2018-12-23T11:14:15.004Z,27.40
2018-12-23T11:16:58.822Z,28.10
2018-12-23T11:19:43.222Z,26.00
2018-12-23T11:25:08.774Z,27.63
2018-12-23T11:27:52.277Z,28.63
2018-12-23T11:30:35.294Z,29.70
2018-12-23T11:33:19.580Z,29.67
2018-12-23T11:36:03.110Z,30.90
2018-12-23T11:38:47.411Z,32.20
2018-12-23T11:41:30.450Z,30.23
2018-12-23T11:44:14.797Z,32.90
2018-12-23T11:46:58.269Z,31.80
2018-12-23T11:49:41.157Z,38.87
2018-12-23T11:52:24.214Z,74.00
2018-12-23T11:55:07.844Z,107.97
2018-12-23T12:00:34.250Z,45.03
2018-12-23T12:03:19.005Z,42.83
2018-12-23T12:06:03.786Z,34.30
2018-12-23T12:08:48.673Z,36.17
2018-12-23T12:11:32.439Z,38.53
2018-12-23T12:14:16.379Z,37.27
2018-12-23T12:16:59.302Z,37.90
2018-12-23T12:19:44.038Z,28.83
2018-12-23T12:22:27.150Z,28.03
2018-12-23T12:25:12.108Z,32.20
2018-12-23T12:27:55.557Z,46.58
2018-12-23T12:30:39.206Z,37.13
2018-12-23T12:33:22.476Z,41.30
2018-12-23T12:36:07.146Z,30.67
2018-12-23T12:38:52.204Z,40.33
2018-12-23T12:41:37.258Z,41.30
2018-12-23T12:44:21.078Z,36.50
2018-12-23T12:47:04.750Z,40.67
2018-12-23T12:49:48.196Z,37.87
2018-12-23T12:52:31.886Z,33.90
2018-12-23T12:55:15.198Z,31.70
2018-12-23T12:57:58.543Z,39.03
2018-12-23T13:00:42.516Z,38.83
2018-12-23T13:03:25.435Z,33.50
2018-12-23T13:06:09.486Z,33.17
2018-12-23T13:09:00.297Z,28.40
2018-12-23T13:11:36.461Z,32.80
2018-12-23T13:14:19.349Z,27.97
2018-12-23T13:17:03.880Z,28.50
2018-12-23T13:19:48.298Z,30.90
2018-12-23T13:22:31.930Z,25.73
2018-12-23T13:25:15.162Z,28.77
2018-12-23T13:27:59.109Z,23.27
2018-12-23T13:30:42.199Z,22.43
2018-12-23T13:33:26.032Z,22.50
2018-12-23T13:38:55.187Z,18.57
2018-12-23T13:44:22.591Z,16.87
2018-12-23T13:47:06.291Z,14.30
2018-12-23T13:49:49.595Z,15.47
2018-12-23T13:52:33.888Z,15.30
2018-12-23T13:55:16.836Z,22.58
2018-12-23T13:58:01.244Z,21.07
2018-12-23T14:00:45.776Z,12.13
2018-12-23T14:03:29.316Z,16.23
2018-12-23T14:06:12.235Z,18.17
2018-12-23T14:08:55.356Z,20.63
2018-12-23T14:11:40.299Z,16.27
2018-12-23T14:14:23.799Z,16.70
2018-12-23T14:19:53.148Z,16.10
2018-12-23T14:22:36.011Z,14.20
2018-12-23T14:28:03.119Z,21.62
2018-12-23T14:33:35.969Z,12.10
2018-12-23T14:39:03.289Z,11.70
2018-12-23T14:47:17.531Z,7.53
2018-12-23T14:50:00.701Z,8.03
2018-12-23T14:52:44.020Z,15.13
2018-12-23T14:58:11.193Z,9.40
2018-12-23T15:00:56.451Z,11.60
2018-12-23T15:03:39.419Z,9.03
2018-12-23T15:06:22.412Z,7.47
2018-12-23T15:09:07.624Z,7.07
2018-12-23T15:11:51.263Z,9.40
2018-12-23T15:14:34.631Z,8.07
2018-12-23T15:17:18.228Z,7.17
2018-12-23T15:20:01.304Z,9.93
2018-12-23T15:22:44.518Z,9.43
2018-12-23T15:25:27.583Z,15.83
2018-12-23T15:28:11.447Z,10.80
2018-12-23T15:30:54.244Z,10.57
2018-12-23T15:36:19.300Z,6.80
2018-12-23T15:39:02.239Z,9.23
2018-12-23T15:41:45.494Z,15.43
2018-12-23T15:44:28.612Z,6.30
2018-12-23T15:47:11.791Z,5.37
2018-12-23T15:49:55.255Z,9.23
2018-12-23T15:52:38.904Z,11.63
2018-12-23T15:55:22.729Z,5.27
2018-12-23T15:58:06.112Z,7.77
2018-12-23T16:00:50.583Z,4.00
2018-12-23T16:03:34.140Z,6.60
2018-12-23T16:06:17.238Z,3.50
2018-12-23T16:09:02.612Z,4.33
2018-12-23T16:11:46.022Z,4.97
2018-12-23T16:14:29.212Z,3.87
2018-12-23T16:17:13.841Z,7.43
2018-12-23T16:19:57.042Z,5.30
2018-12-23T16:25:25.092Z,6.13
2018-12-23T16:28:08.851Z,5.57
2018-12-23T16:30:51.875Z,2.40
2018-12-23T16:33:35.223Z,4.30
2018-12-23T16:36:19.632Z,2.70
2018-12-23T16:39:03.556Z,5.47
2018-12-23T16:41:46.718Z,5.07
2018-12-23T16:44:30.259Z,4.37
2018-12-23T16:47:13.311Z,2.83
2018-12-23T16:49:56.716Z,3.45
2018-12-23T16:52:40.033Z,3.97
2018-12-23T16:55:24.568Z,3.87
2018-12-23T16:58:08.914Z,2.53
2018-12-23T17:00:52.615Z,3.10
2018-12-23T17:03:36.556Z,2.60
2018-12-23T17:06:20.370Z,4.47
2018-12-23T17:09:03.903Z,5.20
2018-12-23T17:11:48.074Z,3.50
2018-12-23T17:14:31.428Z,4.63
2018-12-23T17:17:14.283Z,2.83
2018-12-23T17:19:57.910Z,3.70
2018-12-23T17:22:43.296Z,2.80
2018-12-23T17:25:27.460Z,3.57
2018-12-23T17:28:10.574Z,5.50
2018-12-23T17:30:54.939Z,3.40
2018-12-23T17:33:37.827Z,3.17
2018-12-23T17:36:21.252Z,3.47
2018-12-23T17:39:05.668Z,5.10
2018-12-23T17:41:49.275Z,4.27
2018-12-23T17:44:32.586Z,4.10
2018-12-23T17:47:16.128Z,3.20
2018-12-23T17:49:58.695Z,4.33
2018-12-23T17:52:42.185Z,5.20
2018-12-23T17:55:25.395Z,5.13
2018-12-23T17:58:08.946Z,4.90
2018-12-23T18:00:52.228Z,4.80
2018-12-23T18:03:37.475Z,5.40
2018-12-23T18:06:20.400Z,7.83
2018-12-23T18:09:05.779Z,5.07
2018-12-23T18:11:49.291Z,8.47
2018-12-23T18:14:32.477Z,8.63
2018-12-23T18:22:49.991Z,6.23
2018-12-23T18:25:33.207Z,5.58
2018-12-23T18:28:16.108Z,4.90
2018-12-23T18:30:59.837Z,7.13
2018-12-23T18:33:43.274Z,4.80
2018-12-23T18:36:27.212Z,7.13
2018-12-23T18:39:10.578Z,4.23
2018-12-23T18:41:55.011Z,4.40
2018-12-23T18:47:21.175Z,3.90
2018-12-23T18:50:04.287Z,3.70
2018-12-23T18:52:47.296Z,7.27
2018-12-23T18:55:31.326Z,3.67
2018-12-23T18:58:14.418Z,5.33
2018-12-23T19:00:57.356Z,5.50
2018-12-23T19:03:40.899Z,5.13
2018-12-23T19:06:24.329Z,4.30
2018-12-23T19:09:07.733Z,8.07
2018-12-23T19:14:34.636Z,4.53
2018-12-23T19:22:53.672Z,10.90
2018-12-23T19:25:36.524Z,6.43
2018-12-23T19:28:22.003Z,6.37
2018-12-23T19:31:05.939Z,5.80
2018-12-23T19:33:49.034Z,5.67
2018-12-23T19:36:32.759Z,3.40
2018-12-23T19:39:16.435Z,3.77
2018-12-23T19:42:02.259Z,4.00
2018-12-23T19:44:45.745Z,4.80
2018-12-23T19:50:11.597Z,3.97
2018-12-23T19:52:55.059Z,3.33
2018-12-23T19:55:38.168Z,5.50
2018-12-23T19:58:22.850Z,4.27
2018-12-23T20:01:06.885Z,6.20
2018-12-23T20:06:32.863Z,5.97
2018-12-23T20:11:58.399Z,3.40
2018-12-23T20:14:42.104Z,5.67
2018-12-23T20:17:26.146Z,2.70
2018-12-23T20:20:09.924Z,4.13
2018-12-23T20:22:54.274Z,5.73
2018-12-23T20:25:37.292Z,5.27
2018-12-23T20:28:22.054Z,3.20
2018-12-23T20:31:05.456Z,2.47
2018-12-23T20:33:48.608Z,3.07
2018-12-23T20:36:31.820Z,2.60
2018-12-23T20:39:15.807Z,4.30
2018-12-23T20:42:00.572Z,4.37
2018-12-23T20:44:45.308Z,5.40
2018-12-23T20:47:28.518Z,4.20
2018-12-23T20:50:11.568Z,5.77
2018-12-23T20:55:37.329Z,3.80
2018-12-23T20:58:21.156Z,10.37
2018-12-23T21:01:04.338Z,3.37
2018-12-23T21:06:31.330Z,4.07
2018-12-23T21:09:15.099Z,5.50
2018-12-23T21:11:59.419Z,3.47
2018-12-23T21:14:42.827Z,3.37
2018-12-23T21:17:26.382Z,3.80
2018-12-23T21:20:10.355Z,3.60
2018-12-23T21:22:53.889Z,6.30
2018-12-23T21:28:20.039Z,4.27
2018-12-23T21:31:03.582Z,3.97
2018-12-23T21:33:46.715Z,5.03
2018-12-23T21:36:30.703Z,4.33
2018-12-23T21:39:40.764Z,5.73
2018-12-23T21:42:50.974Z,6.20
2018-12-23T21:45:34.652Z,8.23
2018-12-23T21:48:18.131Z,5.93
2018-12-23T21:51:01.999Z,4.50
2018-12-23T21:53:46.608Z,4.10
2018-12-23T21:56:29.624Z,7.40
2018-12-23T21:59:12.488Z,6.10
2018-12-23T22:01:56.758Z,6.07
2018-12-23T22:04:40.434Z,4.60
2018-12-23T22:07:24.590Z,4.93
2018-12-23T22:10:08.837Z,5.00
2018-12-23T22:12:52.087Z,6.95
2018-12-23T22:18:24.207Z,11.50
2018-12-23T22:21:08.315Z,6.10
2018-12-23T22:23:51.691Z,4.73
2018-12-23T22:29:19.254Z,6.17
2018-12-23T22:32:02.762Z,9.80
2018-12-23T22:34:47.375Z,16.63
2018-12-23T22:40:12.860Z,8.03
2018-12-23T22:42:56.333Z,8.83
2018-12-23T22:45:39.211Z,10.70
2018-12-23T22:48:13.999Z,16.47
2018-12-23T22:51:10.888Z,8.53
2018-12-23T22:54:04.378Z,17.30
2018-12-23T22:56:48.518Z,8.17
2018-12-23T23:02:14.268Z,6.40
2018-12-23T23:04:58.303Z,10.60
2018-12-23T23:07:41.851Z,8.47
2018-12-23T23:10:26.204Z,6.50
2018-12-23T23:13:18.314Z,5.90
2018-12-23T23:15:56.097Z,20.00
2018-12-23T23:18:41.225Z,9.07
2018-12-23T23:24:09.158Z,8.23
2018-12-23T23:29:35.307Z,8.27
2018-12-23T23:32:19.992Z,14.65
2018-12-23T23:35:03.932Z,8.33
2018-12-23T23:37:48.435Z,5.93
2018-12-23T23:40:32.125Z,6.37
2018-12-23T23:43:16.793Z,22.60
2018-12-23T23:45:59.741Z,6.20
2018-12-23T23:48:44.263Z,6.57
2018-12-23T23:51:28.632Z,7.67
2018-12-23T23:54:12.809Z,6.70
2018-12-23T23:56:56.709Z,7.80
2018-12-23T23:59:41.409Z,6.27
